Time;durP1;ratioP1;P1;durP2;ratioP2;P2;SDS_P1;SDS_P2;PMS_P1;PMS_P2;Temp;Humidity;BMP_temperature;BMP_pressure;BME280_temperature;BME280_humidity;BME280_pressure;Samples;Min_cycle;Max_cycle;Signal;HPM_P1;HPM_P2
2024/02/29 00:01:59;;;;;;;34.90;18.87;;;4.80;99.90;;;;;;4948214;28;20214;-49
2024/02/29 00:04:28;;;;;;;33.60;18.20;;;4.80;99.90;;;;;;4946611;28;20207;-51
2024/02/29 00:06:56;;;;;;;36.40;18.50;;;4.80;99.90;;;;;;4966041;28;20218;-52
2024/02/29 00:09:23;;;;;;;38.10;19.20;;;4.70;99.90;;;;;;4923844;28;20280;-49
2024/02/29 00:11:51;;;;;;;36.50;18.30;;;4.70;99.90;;;;;;4965099;28;20206;-53
2024/02/29 00:14:18;;;;;;;40.10;19.67;;;4.70;99.90;;;;;;4955341;28;20208;-49
2024/02/29 00:16:45;;;;;;;37.80;18.80;;;4.60;99.90;;;;;;4955427;28;20730;-49
2024/02/29 00:19:12;;;;;;;38.77;18.13;;;4.60;99.90;;;;;;4953824;28;20889;-48
2024/02/29 00:21:39;;;;;;;36.37;18.93;;;4.60;99.90;;;;;;4945021;28;20651;-52
2024/02/29 00:24:08;;;;;;;39.50;18.30;;;4.50;99.90;;;;;;4934589;28;20969;-50
2024/02/29 00:26:35;;;;;;;38.43;20.17;;;4.50;99.90;;;;;;4962557;28;20210;-51
2024/02/29 00:29:01;;;;;;;39.43;18.23;;;4.50;99.90;;;;;;4963621;28;20257;-54
2024/02/29 00:31:28;;;;;;;34.60;18.00;;;4.50;99.90;;;;;;4950100;28;20210;-52
2024/02/29 00:33:55;;;;;;;34.03;18.87;;;4.50;99.90;;;;;;4955311;28;20218;-53
2024/02/29 00:36:22;;;;;;;35.03;18.87;;;4.50;99.90;;;;;;4948628;28;20962;-47
2024/02/29 00:38:49;;;;;;;35.50;18.67;;;4.40;99.90;;;;;;4937133;28;20292;-52
2024/02/29 00:41:17;;;;;;;38.23;19.60;;;4.40;99.90;;;;;;4963310;28;20256;-48
2024/02/29 00:43:44;;;;;;;39.67;18.50;;;4.40;99.90;;;;;;4964881;28;20334;-50
2024/02/29 00:46:11;;;;;;;39.27;19.57;;;4.40;99.90;;;;;;4951810;28;20250;-46
2024/02/29 00:48:38;;;;;;;40.70;19.07;;;4.40;99.90;;;;;;4956406;28;20276;-52
2024/02/29 00:51:05;;;;;;;39.53;19.83;;;4.40;99.90;;;;;;4945419;28;20672;-51
2024/02/29 00:53:32;;;;;;;41.60;18.93;;;4.40;99.90;;;;;;4961313;28;20202;-52
2024/02/29 00:55:58;;;;;;;37.60;19.37;;;4.40;99.90;;;;;;4935180;28;20292;-53
2024/02/29 00:58:27;;;;;;;34.43;18.90;;;4.40;99.90;;;;;;4964528;28;20222;-51
2024/02/29 01:00:54;;;;;;;35.83;18.47;;;4.40;99.90;;;;;;4962994;28;20629;-54
2024/02/29 01:03:21;;;;;;;39.97;19.70;;;4.50;99.90;;;;;;4943960;28;20214;-48
2024/02/29 01:05:48;;;;;;;38.00;20.10;;;4.40;99.90;;;;;;4965272;28;20615;-54
2024/02/29 01:08:15;;;;;;;38.20;19.03;;;4.50;99.90;;;;;;4945340;28;20773;-53
2024/02/29 01:10:42;;;;;;;37.30;19.17;;;4.50;99.90;;;;;;4937743;28;20341;-49
2024/02/29 01:13:09;;;;;;;36.27;19.33;;;4.50;99.90;;;;;;4961282;28;20759;-50
2024/02/29 01:15:38;;;;;;;42.17;20.93;;;4.50;99.90;;;;;;4956474;28;20245;-52
2024/02/29 01:18:06;;;;;;;40.77;19.60;;;4.60;99.90;;;;;;4952062;28;20573;-53
2024/02/29 01:20:33;;;;;;;36.53;19.30;;;4.60;99.90;;;;;;4952020;28;20217;-52
2024/02/29 01:23:00;;;;;;;42.80;20.10;;;4.60;99.90;;;;;;4945831;28;20594;-53
2024/02/29 01:25:27;;;;;;;38.40;20.27;;;4.60;99.90;;;;;;4937395;28;20928;-51
2024/02/29 01:27:54;;;;;;;40.27;20.50;;;4.60;99.90;;;;;;4951410;28;20249;-50
2024/02/29 01:30:21;;;;;;;42.47;21.10;;;4.60;99.90;;;;;;4964292;28;20229;-48
2024/02/29 01:32:49;;;;;;;38.13;19.50;;;4.70;99.90;;;;;;4953896;28;20206;-50
2024/02/29 01:35:16;;;;;;;41.27;19.67;;;4.70;99.90;;;;;;4944527;28;20214;-51
2024/02/29 01:37:43;;;;;;;40.10;20.40;;;4.70;99.90;;;;;;4956421;28;20261;-53
2024/02/29 01:40:10;;;;;;;39.00;20.17;;;4.70;99.90;;;;;;4952474;28;20217;-50
2024/02/29 01:42:41;;;;;;;38.30;18.97;;;4.70;99.90;;;;;;4936943;28;20257;-53
2024/02/29 01:45:09;;;;;;;39.60;19.90;;;4.70;99.90;;;;;;4960154;28;20865;-49
2024/02/29 01:47:35;;;;;;;42.57;21.07;;;4.70;99.90;;;;;;4955514;28;20225;-50
2024/02/29 01:50:08;;;;;;;41.83;19.80;;;4.70;99.90;;;;;;4951464;28;20226;-51
2024/02/29 01:52:40;;;;;;;35.97;19.53;;;4.70;99.90;;;;;;4964896;28;20527;-51
2024/02/29 01:55:07;;;;;;;39.93;20.03;;;4.70;99.90;;;;;;4945092;28;20198;-48
2024/02/29 01:57:35;;;;;;;37.50;19.57;;;4.70;99.90;;;;;;4934303;28;20205;-52
2024/02/29 02:00:04;;;;;;;38.17;19.97;;;4.80;99.90;;;;;;4960402;28;20210;-50
2024/02/29 02:02:34;;;;;;;34.43;18.93;;;4.80;99.90;;;;;;4955857;28;20206;-52
2024/02/29 02:05:01;;;;;;;34.97;18.70;;;4.80;99.90;;;;;;4951504;28;20847;-49
2024/02/29 02:07:30;;;;;;;36.83;18.37;;;4.80;99.90;;;;;;4962428;28;20233;-51
2024/02/29 02:09:56;;;;;;;36.77;20.10;;;4.80;99.90;;;;;;4942931;28;20242;-51
2024/02/29 02:12:23;;;;;;;36.33;19.30;;;4.80;99.90;;;;;;4931603;28;20210;-49
2024/02/29 02:14:50;;;;;;;37.80;19.10;;;4.80;99.90;;;;;;4961513;28;20205;-55
2024/02/29 02:17:17;;;;;;;36.50;18.80;;;4.70;99.90;;;;;;4963517;28;20206;-50
2024/02/29 02:19:45;;;;;;;31.70;18.83;;;4.80;99.90;;;;;;4953892;28;20221;-55
2024/02/29 02:22:13;;;;;;;34.33;18.40;;;4.70;99.90;;;;;;4953189;28;20887;-51
2024/02/29 02:24:40;;;;;;;38.53;20.00;;;4.70;99.90;;;;;;4960292;28;20257;-52
2024/02/29 02:27:07;;;;;;;38.37;19.37;;;4.70;99.90;;;;;;4921823;28;21070;-50
2024/02/29 02:29:33;;;;;;;39.37;19.07;;;4.70;99.90;;;;;;4963837;28;20712;-48
2024/02/29 02:32:00;;;;;;;32.10;17.13;;;4.70;99.90;;;;;;4959596;28;20206;-54
2024/02/29 02:34:27;;;;;;;36.23;18.63;;;4.70;99.90;;;;;;4955023;28;20225;-49
2024/02/29 02:36:54;;;;;;;34.37;18.33;;;4.70;99.90;;;;;;4950760;28;20229;-51
2024/02/29 02:39:23;;;;;;;36.77;19.13;;;4.70;99.90;;;;;;4954158;28;20743;-50
2024/02/29 02:41:49;;;;;;;33.93;18.90;;;4.70;99.90;;;;;;4940296;28;20194;-51
2024/02/29 02:44:16;;;;;;;37.80;18.00;;;4.70;99.90;;;;;;4936217;28;20361;-52
2024/02/29 02:46:43;;;;;;;34.70;18.73;;;4.60;99.90;;;;;;4959824;28;20200;-53
2024/02/29 02:49:10;;;;;;;40.53;19.00;;;4.60;99.90;;;;;;4963368;28;20214;-49
2024/02/29 02:51:37;;;;;;;37.60;18.17;;;4.60;99.90;;;;;;4948534;28;20576;-50
2024/02/29 02:54:04;;;;;;;37.47;19.63;;;4.60;99.90;;;;;;4957910;28;20198;-54
2024/02/29 02:56:32;;;;;;;37.80;19.07;;;4.60;99.90;;;;;;4946134;28;20230;-51
2024/02/29 02:58:59;;;;;;;32.73;18.27;;;4.60;99.90;;;;;;4934083;28;20919;-48
2024/02/29 03:01:25;;;;;;;35.93;19.03;;;4.60;99.90;;;;;;4963556;28;20202;-53
2024/02/29 03:03:52;;;;;;;35.20;18.90;;;4.60;99.90;;;;;;4958897;28;20206;-51
2024/02/29 03:06:19;;;;;;;38.50;19.83;;;4.50;99.90;;;;;;4955541;28;20720;-53
2024/02/29 03:08:46;;;;;;;31.97;19.17;;;4.50;99.90;;;;;;4950043;28;20312;-48
2024/02/29 03:11:14;;;;;;;36.47;19.40;;;4.50;99.90;;;;;;4962011;28;20261;-52
2024/02/29 03:13:42;;;;;;;36.20;18.43;;;4.50;99.90;;;;;;4922936;28;20198;-54
2024/02/29 03:16:09;;;;;;;35.30;18.30;;;4.50;99.90;;;;;;4958807;28;20674;-52
2024/02/29 03:18:36;;;;;;;32.90;18.30;;;4.40;99.90;;;;;;4964354;28;20226;-55
2024/02/29 03:21:06;;;;;;;36.77;19.63;;;4.40;99.90;;;;;;4956913;28;20205;-50
2024/02/29 03:23:32;;;;;;;31.27;17.13;;;4.40;99.90;;;;;;4956779;28;20226;-54
2024/02/29 03:25:59;;;;;;;40.90;19.40;;;4.40;99.90;;;;;;4963790;28;20198;-52
2024/02/29 03:28:26;;;;;;;36.27;18.57;;;4.30;99.90;;;;;;4950569;28;20270;-49
2024/02/29 03:30:56;;;;;;;36.07;19.00;;;4.30;99.90;;;;;;4939727;28;20289;-49
2024/02/29 03:33:23;;;;;;;38.87;19.13;;;4.20;99.90;;;;;;4966734;28;20533;-49
2024/02/29 03:35:50;;;;;;;32.90;17.57;;;4.20;99.90;;;;;;4954550;28;20221;-51
2024/02/29 03:38:17;;;;;;;34.57;17.47;;;4.10;99.90;;;;;;4967107;28;20226;-52
2024/02/29 03:40:44;;;;;;;34.07;18.40;;;4.10;99.90;;;;;;4954463;28;20202;-55
2024/02/29 03:43:11;;;;;;;36.60;18.20;;;4.00;99.90;;;;;;4949769;28;20225;-51
2024/02/29 03:45:38;;;;;;;35.27;18.53;;;4.00;99.90;;;;;;4937292;28;20233;-54
2024/02/29 03:48:06;;;;;;;37.77;19.17;;;4.00;99.90;;;;;;4965302;28;20225;-49
2024/02/29 03:50:34;;;;;;;33.93;17.93;;;3.90;99.90;;;;;;4961390;28;20285;-54
2024/02/29 03:53:01;;;;;;;35.03;19.20;;;3.90;99.90;;;;;;4959428;28;21395;-49
2024/02/29 03:55:27;;;;;;;36.50;17.57;;;3.80;99.90;;;;;;4957858;28;20202;-52
2024/02/29 03:57:54;;;;;;;34.90;17.67;;;3.80;99.90;;;;;;4945946;28;20203;-48
2024/02/29 04:00:21;;;;;;;35.87;18.40;;;3.80;99.90;;;;;;4966974;28;20202;-51
2024/02/29 04:02:48;;;;;;;37.80;18.40;;;3.70;99.90;;;;;;4936110;28;20222;-52
2024/02/29 04:05:16;;;;;;;32.50;17.97;;;3.80;99.90;;;;;;4965490;28;20746;-50
2024/02/29 04:07:43;;;;;;;35.13;17.57;;;3.70;99.90;;;;;;4954786;28;20232;-50
2024/02/29 04:10:12;;;;;;;36.57;19.20;;;3.70;99.90;;;;;;4956932;28;20708;-49
2024/02/29 04:12:38;;;;;;;34.03;17.47;;;3.70;99.90;;;;;;4953420;28;20531;-52
2024/02/29 04:15:06;;;;;;;35.60;18.33;;;3.60;99.90;;;;;;4959734;28;20190;-51
2024/02/29 04:17:33;;;;;;;38.00;18.37;;;3.60;99.90;;;;;;4937075;28;20202;-54
2024/02/29 04:20:00;;;;;;;34.20;17.07;;;3.60;99.90;;;;;;4963660;28;20257;-49
2024/02/29 04:22:29;;;;;;;34.67;17.43;;;3.50;99.90;;;;;;4957799;28;20213;-52
2024/02/29 04:24:56;;;;;;;29.27;16.63;;;3.50;99.90;;;;;;4953311;28;20262;-49
2024/02/29 04:27:23;;;;;;;32.10;17.27;;;3.50;99.90;;;;;;4964473;28;20190;-49
2024/02/29 04:29:50;;;;;;;34.93;17.47;;;3.40;99.90;;;;;;4944164;28;20225;-48
2024/02/29 04:32:17;;;;;;;36.50;18.37;;;3.40;99.90;;;;;;4965351;28;20880;-50
2024/02/29 04:34:44;;;;;;;34.37;17.80;;;3.40;99.90;;;;;;4934559;28;20206;-53
2024/02/29 04:37:11;;;;;;;36.57;18.17;;;3.40;99.90;;;;;;4965782;28;20202;-50
2024/02/29 04:39:40;;;;;;;37.83;19.53;;;3.40;99.90;;;;;;4949826;28;20762;-50
2024/02/29 04:42:07;;;;;;;36.33;17.23;;;3.30;99.90;;;;;;4952878;28;20206;-52
2024/02/29 04:44:34;;;;;;;37.07;18.50;;;3.30;99.90;;;;;;4955728;28;20719;-54
2024/02/29 04:47:01;;;;;;;33.07;17.40;;;3.30;99.90;;;;;;4953253;28;20218;-48
2024/02/29 04:49:28;;;;;;;32.60;18.40;;;3.30;99.90;;;;;;4938627;28;20228;-53
2024/02/29 04:51:55;;;;;;;34.60;17.47;;;3.20;99.90;;;;;;4961479;28;20190;-52
2024/02/29 04:54:22;;;;;;;34.87;18.13;;;3.20;99.90;;;;;;4957134;28;20228;-51
2024/02/29 04:56:50;;;;;;;37.37;19.33;;;3.20;99.90;;;;;;4951375;28;20217;-49
2024/02/29 04:59:17;;;;;;;33.00;17.60;;;3.20;99.90;;;;;;4965336;28;20218;-51
2024/02/29 05:01:44;;;;;;;35.47;17.47;;;3.20;99.90;;;;;;4934586;28;20216;-50
2024/02/29 05:04:11;;;;;;;30.47;17.53;;;3.10;99.90;;;;;;4954797;28;20202;-54
2024/02/29 05:06:38;;;;;;;29.50;17.10;;;3.10;99.90;;;;;;4948064;28;20198;-50
2024/02/29 05:09:06;;;;;;;33.07;16.60;;;3.10;99.90;;;;;;4949158;28;20285;-51
2024/02/29 05:11:33;;;;;;;36.50;17.53;;;3.10;99.90;;;;;;4951847;28;20202;-50
2024/02/29 05:14:01;;;;;;;35.30;18.30;;;3.10;99.90;;;;;;4955606;28;20561;-50
2024/02/29 05:16:28;;;;;;;34.43;17.03;;;3.10;99.90;;;;;;4946270;28;20202;-49
2024/02/29 05:18:55;;;;;;;32.37;17.40;;;3.10;99.90;;;;;;4968045;28;20696;-48
2024/02/29 05:21:22;;;;;;;32.77;17.50;;;3.10;99.90;;;;;;4927699;28;20274;-50
2024/02/29 05:23:49;;;;;;;33.43;17.07;;;3.10;99.90;;;;;;4959171;28;20680;-51
2024/02/29 05:26:16;;;;;;;38.30;17.07;;;3.00;99.90;;;;;;4955818;28;20198;-55
2024/02/29 05:28:42;;;;;;;34.97;18.07;;;3.00;99.90;;;;;;4955389;28;20292;-48
2024/02/29 05:31:11;;;;;;;34.30;18.17;;;3.00;99.90;;;;;;4955741;28;20318;-52
2024/02/29 05:33:40;;;;;;;34.27;16.83;;;3.00;99.90;;;;;;4957080;28;20305;-47
2024/02/29 05:36:07;;;;;;;34.37;17.13;;;3.00;99.90;;;;;;4927894;28;20300;-49
2024/02/29 05:38:34;;;;;;;33.33;17.70;;;3.00;99.90;;;;;;4952680;28;20308;-54
2024/02/29 05:41:02;;;;;;;33.83;17.23;;;3.00;99.90;;;;;;4955823;28;20217;-55
2024/02/29 05:43:29;;;;;;;25.93;14.57;;;3.00;99.90;;;;;;4952646;28;20888;-48
2024/02/29 05:45:56;;;;;;;36.10;16.83;;;3.00;99.90;;;;;;4946495;28;20210;-55
2024/02/29 05:48:24;;;;;;;40.23;17.27;;;3.00;99.90;;;;;;4946666;28;20225;-51
2024/02/29 05:50:51;;;;;;;33.83;16.97;;;2.90;99.90;;;;;;4946899;28;20201;-56
2024/02/29 05:53:18;;;;;;;33.37;17.10;;;2.90;99.90;;;;;;4948909;28;20880;-50
2024/02/29 05:55:44;;;;;;;33.30;17.13;;;2.90;99.90;;;;;;4955543;28;20210;-48
2024/02/29 05:58:11;;;;;;;35.13;18.17;;;2.90;99.90;;;;;;4942395;28;20277;-48
2024/02/29 06:00:38;;;;;;;30.03;16.33;;;2.90;99.90;;;;;;4966012;28;20229;-50
2024/02/29 06:03:05;;;;;;;31.43;15.77;;;2.90;99.90;;;;;;4943720;28;20804;-52
2024/02/29 06:05:35;;;;;;;31.30;16.57;;;2.90;99.90;;;;;;4961970;28;20214;-49
2024/02/29 06:08:03;;;;;;;39.00;17.73;;;2.90;99.90;;;;;;4932868;28;20707;-55
2024/02/29 06:10:30;;;;;;;31.93;17.50;;;2.90;99.90;;;;;;4957273;28;20218;-47
2024/02/29 06:12:57;;;;;;;33.77;17.20;;;2.90;99.90;;;;;;4946915;28;20213;-53
2024/02/29 06:15:24;;;;;;;31.20;17.37;;;2.90;99.90;;;;;;4960389;28;20264;-51
2024/02/29 06:17:51;;;;;;;31.80;17.07;;;2.80;99.90;;;;;;4963378;28;20209;-51
2024/02/29 06:20:17;;;;;;;31.33;17.20;;;2.90;99.90;;;;;;4934726;28;20218;-47
2024/02/29 06:22:46;;;;;;;30.90;15.87;;;2.90;99.90;;;;;;4932628;28;20261;-47
2024/02/29 06:25:12;;;;;;;29.87;16.67;;;2.90;99.90;;;;;;4963692;28;20623;-48
2024/02/29 06:27:40;;;;;;;31.87;17.30;;;2.90;99.90;;;;;;4943743;28;20197;-52
2024/02/29 06:30:08;;;;;;;30.37;14.90;;;2.90;99.90;;;;;;4952372;28;20692;-47
2024/02/29 06:32:35;;;;;;;33.00;17.33;;;3.00;99.90;;;;;;4965060;28;20209;-52
2024/02/29 06:35:01;;;;;;;33.20;15.70;;;3.00;99.90;;;;;;4943708;28;20217;-49
2024/02/29 06:37:28;;;;;;;28.93;15.97;;;3.00;99.90;;;;;;4933886;28;20209;-55
2024/02/29 06:39:58;;;;;;;33.07;16.97;;;3.00;99.90;;;;;;4960410;28;20291;-49
2024/02/29 06:42:25;;;;;;;33.47;18.07;;;3.10;99.90;;;;;;4936315;28;20209;-49
2024/02/29 06:44:52;;;;;;;30.67;15.23;;;3.10;99.90;;;;;;4955423;28;20626;-49
2024/02/29 06:47:19;;;;;;;29.53;15.97;;;3.10;99.90;;;;;;4959824;28;20197;-51
2024/02/29 06:49:46;;;;;;;27.90;16.37;;;3.20;99.90;;;;;;4957929;28;20222;-50
2024/02/29 06:52:12;;;;;;;35.77;16.30;;;3.20;99.90;;;;;;4928882;28;20249;-55
2024/02/29 06:54:41;;;;;;;30.97;15.90;;;3.30;99.90;;;;;;4944944;28;20242;-47
2024/02/29 06:57:09;;;;;;;30.27;15.50;;;3.40;99.90;;;;;;4960120;28;20580;-52
2024/02/29 06:59:36;;;;;;;33.30;16.53;;;3.40;99.90;;;;;;4946204;28;20341;-50
2024/02/29 07:02:04;;;;;;;34.50;16.23;;;3.50;99.90;;;;;;4962950;28;20256;-47
2024/02/29 07:04:31;;;;;;;29.50;15.17;;;3.50;99.90;;;;;;4954661;28;20194;-48
2024/02/29 07:06:58;;;;;;;30.70;16.07;;;3.60;99.90;;;;;;4946203;28;20202;-51
2024/02/29 07:09:25;;;;;;;27.27;14.17;;;3.60;99.90;;;;;;4931878;28;20217;-51
2024/02/29 07:11:51;;;;;;;30.33;16.67;;;3.70;99.90;;;;;;4963210;28;20618;-48
2024/02/29 07:14:20;;;;;;;28.40;15.43;;;3.70;99.90;;;;;;4944521;28;20312;-53
2024/02/29 07:16:46;;;;;;;28.33;14.70;;;3.80;99.90;;;;;;4962550;28;20202;-50
2024/02/29 07:19:14;;;;;;;29.33;15.10;;;3.90;99.90;;;;;;4961379;28;20225;-52
2024/02/29 07:21:41;;;;;;;22.93;13.93;;;4.00;99.90;;;;;;4945384;28;20226;-54
2024/02/29 07:24:08;;;;;;;25.50;14.90;;;4.10;99.90;;;;;;4935378;28;20221;-54
2024/02/29 07:26:40;;;;;;;24.03;14.23;;;4.20;99.90;;;;;;4956715;28;20205;-49
2024/02/29 07:29:07;;;;;;;24.77;14.57;;;4.20;99.90;;;;;;4958927;28;20225;-56
2024/02/29 07:31:35;;;;;;;22.70;14.03;;;4.30;99.90;;;;;;4946317;28;21371;-48
2024/02/29 07:34:02;;;;;;;25.33;14.57;;;4.40;99.90;;;;;;4966912;28;20202;-51
2024/02/29 07:36:29;;;;;;;25.33;14.20;;;4.40;99.90;;;;;;4962331;28;20954;-52
2024/02/29 07:38:56;;;;;;;25.07;13.77;;;4.40;99.90;;;;;;4906673;28;20245;-56
2024/02/29 07:41:23;;;;;;;23.17;13.97;;;4.50;99.90;;;;;;4962177;28;20210;-47
2024/02/29 07:43:50;;;;;;;24.97;14.40;;;4.60;99.90;;;;;;4946744;28;20667;-48
2024/02/29 07:46:17;;;;;;;26.35;17.60;;;4.60;99.90;;;;;;4909703;28;20419;-54
2024/02/29 07:48:47;;;;;;;24.17;14.23;;;4.80;99.90;;;;;;4920860;28;20674;-47
2024/02/29 07:51:18;;;;;;;27.43;14.67;;;4.90;99.90;;;;;;4956146;28;20678;-53
2024/02/29 07:53:45;;;;;;;27.30;14.93;;;4.90;99.90;;;;;;4945556;28;20265;-49
2024/02/29 07:56:12;;;;;;;24.77;13.70;;;4.90;99.90;;;;;;4934652;28;20229;-54
2024/02/29 07:58:39;;;;;;;22.07;13.70;;;5.00;99.90;;;;;;4951797;28;20280;-47
2024/02/29 08:01:05;;;;;;;25.47;13.90;;;5.00;99.90;;;;;;4954915;28;20222;-53
2024/02/29 08:03:33;;;;;;;21.60;13.03;;;5.10;99.90;;;;;;4947746;28;20217;-47
2024/02/29 08:06:01;;;;;;;21.17;12.43;;;5.20;99.90;;;;;;4950029;28;20218;-50
2024/02/29 08:08:28;;;;;;;28.27;13.90;;;5.20;99.90;;;;;;4947183;28;20300;-50
2024/02/29 08:10:55;;;;;;;24.63;13.07;;;5.30;99.90;;;;;;4939373;28;20545;-47
2024/02/29 08:13:22;;;;;;;21.20;12.33;;;5.30;99.90;;;;;;4955279;28;20206;-53
2024/02/29 08:15:48;;;;;;;23.37;12.03;;;5.40;99.90;;;;;;4957068;28;20265;-49
2024/02/29 08:18:15;;;;;;;20.47;12.53;;;5.50;99.90;;;;;;4955972;28;20631;-53
2024/02/29 08:20:43;;;;;;;22.07;12.33;;;5.50;99.90;;;;;;4949511;28;20206;-52
2024/02/29 08:23:13;;;;;;;21.40;12.60;;;5.60;99.90;;;;;;4960637;28;20672;-54
2024/02/29 08:25:40;;;;;;;24.20;12.73;;;5.70;99.90;;;;;;4956118;28;20221;-47
2024/02/29 08:28:06;;;;;;;21.37;13.10;;;5.70;99.90;;;;;;4937245;28;20877;-54
2024/02/29 08:30:33;;;;;;;21.17;12.67;;;5.90;99.90;;;;;;4954059;28;20220;-47
2024/02/29 08:33:00;;;;;;;18.97;11.57;;;5.90;99.90;;;;;;4949830;28;20668;-47
2024/02/29 08:35:27;;;;;;;20.00;12.20;;;6.00;99.90;;;;;;4951504;28;20912;-49
2024/02/29 08:37:54;;;;;;;18.63;11.67;;;6.10;99.90;;;;;;4965091;28;20198;-47
2024/02/29 08:40:21;;;;;;;21.33;11.33;;;6.20;99.90;;;;;;4946054;28;20213;-53
2024/02/29 08:42:48;;;;;;;22.07;11.37;;;6.30;99.90;;;;;;4937760;28;20210;-47
2024/02/29 08:45:15;;;;;;;19.70;11.50;;;6.40;99.90;;;;;;4959235;28;20202;-53
2024/02/29 08:47:41;;;;;;;19.77;10.83;;;6.40;99.90;;;;;;4944567;28;23053;-47
2024/02/29 08:50:09;;;;;;;17.37;10.67;;;6.50;99.90;;;;;;4965058;28;20226;-51
2024/02/29 08:52:36;;;;;;;21.30;11.93;;;6.50;99.90;;;;;;4949748;28;20203;-49
2024/02/29 08:55:03;;;;;;;19.03;10.90;;;6.60;99.90;;;;;;4947645;28;20210;-47
2024/02/29 08:57:31;;;;;;;15.63;10.47;;;6.70;99.90;;;;;;4930156;28;20281;-52
2024/02/29 08:59:59;;;;;;;16.63;9.47;;;6.70;99.90;;;;;;4964205;28;20214;-50
2024/02/29 09:02:26;;;;;;;12.30;8.37;;;6.70;99.90;;;;;;4942525;28;20206;-49
2024/02/29 09:04:53;;;;;;;18.07;9.97;;;6.80;99.90;;;;;;4957676;28;20205;-49
2024/02/29 09:07:19;;;;;;;15.80;9.60;;;6.90;99.90;;;;;;4953459;28;20225;-54
2024/02/29 09:09:47;;;;;;;16.33;9.80;;;6.90;99.90;;;;;;4946747;28;20766;-51
2024/02/29 09:12:17;;;;;;;16.33;9.67;;;7.00;99.90;;;;;;4934858;28;20288;-53
2024/02/29 09:14:47;;;;;;;14.90;8.77;;;7.10;99.90;;;;;;4961216;28;20206;-49
2024/02/29 09:17:14;;;;;;;18.17;9.20;;;7.10;99.90;;;;;;4958083;28;20249;-54
2024/02/29 09:19:41;;;;;;;17.77;9.67;;;7.20;99.90;;;;;;4951682;28;20218;-50
2024/02/29 09:22:08;;;;;;;17.57;10.10;;;7.30;99.90;;;;;;4962471;28;20261;-52
2024/02/29 09:24:35;;;;;;;15.50;9.43;;;7.30;99.90;;;;;;4954974;28;20252;-50
2024/02/29 09:27:03;;;;;;;16.47;10.13;;;7.40;99.90;;;;;;4947899;28;20210;-50
2024/02/29 09:29:29;;;;;;;15.40;9.00;;;7.50;99.90;;;;;;4932158;28;20234;-47
2024/02/29 09:31:58;;;;;;;13.67;9.27;;;7.60;99.90;;;;;;4965079;28;20275;-50
2024/02/29 09:34:25;;;;;;;14.63;9.77;;;7.70;99.90;;;;;;4950419;28;20213;-52
2024/02/29 09:36:52;;;;;;;16.07;9.30;;;7.80;99.90;;;;;;4957230;28;20206;-49
2024/02/29 09:39:19;;;;;;;12.87;8.63;;;7.90;99.90;;;;;;4952199;28;20226;-52
2024/02/29 09:41:46;;;;;;;12.27;8.73;;;8.00;99.90;;;;;;4946279;28;20201;-48
2024/02/29 09:44:13;;;;;;;12.77;7.93;;;8.10;99.90;;;;;;4935233;28;20292;-55
2024/02/29 09:46:46;;;;;;;12.83;8.27;;;8.20;99.90;;;;;;4962152;28;20329;-49
2024/02/29 09:49:15;;;;;;;11.43;7.87;;;8.30;99.90;;;;;;4952291;28;20225;-55
2024/02/29 09:51:42;;;;;;;11.80;7.73;;;8.40;99.90;;;;;;4955607;28;20214;-51
2024/02/29 09:54:16;;;;;;;13.63;8.67;;;8.40;99.90;;;;;;4961527;28;20665;-53
2024/02/29 09:56:43;;;;;;;12.50;7.50;;;8.40;99.90;;;;;;4943477;28;20220;-48
2024/02/29 09:59:13;;;;;;;11.57;7.80;;;8.40;99.90;;;;;;4935677;28;20226;-55
2024/02/29 10:01:41;;;;;;;10.13;7.23;;;8.50;99.90;;;;;;4964597;28;20265;-53
2024/02/29 10:04:08;;;;;;;9.53;6.93;;;8.60;99.90;;;;;;4954335;28;20213;-56
2024/02/29 10:06:36;;;;;;;10.10;6.20;;;8.70;99.90;;;;;;4950956;28;20209;-56
2024/02/29 10:09:04;;;;;;;8.97;6.63;;;8.80;99.90;;;;;;4957708;28;20266;-53
2024/02/29 10:11:31;;;;;;;12.13;6.70;;;8.80;99.90;;;;;;4955685;28;20253;-52
2024/02/29 10:14:01;;;;;;;7.50;6.10;;;8.90;99.90;;;;;;4915615;28;20213;-55
2024/02/29 10:16:28;;;;;;;7.17;5.50;;;8.90;99.90;;;;;;4963242;28;20217;-49
2024/02/29 10:18:55;;;;;;;13.20;6.00;;;9.00;99.90;;;;;;4950480;28;20226;-49
2024/02/29 10:21:22;;;;;;;7.40;5.60;;;9.10;99.90;;;;;;4963396;28;20249;-50
2024/02/29 10:23:50;;;;;;;10.47;6.23;;;9.20;99.90;;;;;;4953644;28;20220;-53
2024/02/29 10:26:18;;;;;;;11.03;5.87;;;9.30;99.90;;;;;;4950959;28;20669;-51
2024/02/29 10:28:46;;;;;;;9.23;4.90;;;9.40;99.90;;;;;;4943453;28;20225;-54
2024/02/29 10:31:16;;;;;;;7.87;5.00;;;9.50;99.90;;;;;;4935726;28;20241;-53
2024/02/29 10:33:48;;;;;;;8.70;4.87;;;9.60;99.90;;;;;;4955126;28;20205;-54
2024/02/29 10:36:15;;;;;;;7.80;5.13;;;9.70;99.90;;;;;;4963803;28;20204;-49
2024/02/29 10:38:42;;;;;;;8.73;5.23;;;9.80;99.90;;;;;;4953692;28;20229;-54
2024/02/29 10:41:11;;;;;;;8.33;4.90;;;9.90;99.90;;;;;;4962507;28;20189;-52
2024/02/29 10:43:39;;;;;;;6.90;4.77;;;10.00;99.90;;;;;;4932086;28;20834;-51
2024/02/29 10:46:07;;;;;;;7.10;4.50;;;10.10;99.90;;;;;;4933384;28;20912;-47
2024/02/29 10:48:46;;;;;;;8.37;4.90;;;10.10;99.90;;;;;;4960845;28;20629;-54
2024/02/29 10:51:19;;;;;;;10.70;5.30;;;10.20;99.90;;;;;;4961573;28;20700;-49
2024/02/29 10:53:52;;;;;;;5.67;4.27;;;10.30;99.90;;;;;;4954139;28;20244;-55
2024/02/29 10:56:23;;;;;;;6.03;4.60;;;10.40;99.90;;;;;;4963226;28;20253;-49
2024/02/29 10:58:58;;;;;;;7.27;4.77;;;10.40;99.90;;;;;;4932496;28;22972;-47
2024/02/29 11:01:26;;;;;;;4.67;4.07;;;10.60;99.90;;;;;;4931948;28;20226;-47
2024/02/29 11:03:53;;;;;;;5.50;4.47;;;10.70;99.90;;;;;;4949742;28;21690;-52
2024/02/29 11:06:21;;;;;;;5.03;4.43;;;10.80;99.90;;;;;;4963741;28;20262;-47
2024/02/29 11:08:50;;;;;;;6.20;4.03;;;10.90;99.90;;;;;;4952372;28;20218;-54
2024/02/29 11:11:22;;;;;;;5.77;4.47;;;11.00;99.90;;;;;;4953645;28;20209;-52
2024/02/29 11:13:49;;;;;;;4.93;4.00;;;11.00;99.90;;;;;;4946615;28;20205;-55
2024/02/29 11:16:17;;;;;;;9.17;4.20;;;11.10;99.90;;;;;;4916783;28;20216;-49
2024/02/29 11:18:43;;;;;;;6.23;4.30;;;11.20;99.90;;;;;;4960507;28;20305;-56
2024/02/29 11:21:11;;;;;;;6.57;3.80;;;11.30;99.90;;;;;;4952842;28;20323;-50
2024/02/29 11:23:40;;;;;;;5.27;3.60;;;11.30;99.90;;;;;;4960765;28;20289;-54
2024/02/29 11:26:10;;;;;;;4.87;3.83;;;11.40;99.90;;;;;;4952684;28;20946;-51
2024/02/29 11:28:41;;;;;;;5.03;4.33;;;11.40;99.90;;;;;;4956998;28;20751;-54
2024/02/29 11:31:16;;;;;;;4.40;3.70;;;11.50;99.90;;;;;;4912811;28;25052;-52
2024/02/29 11:33:44;;;;;;;4.43;3.93;;;11.50;99.90;;;;;;4954894;28;20249;-54
2024/02/29 11:36:11;;;;;;;5.03;4.13;;;11.50;99.90;;;;;;4953142;28;20217;-51
2024/02/29 11:38:38;;;;;;;4.00;3.60;;;11.50;99.90;;;;;;4961188;28;20224;-54
2024/02/29 11:41:16;;;;;;;6.43;3.97;;;11.60;99.90;;;;;;4957081;28;20202;-48
2024/02/29 11:43:45;;;;;;;6.07;3.73;;;11.70;99.90;;;;;;4957344;28;20780;-54
2024/02/29 11:46:13;;;;;;;5.53;3.80;;;11.70;99.90;;;;;;4948750;28;20205;-52
2024/02/29 11:48:41;;;;;;;5.33;3.97;;;11.80;99.90;;;;;;4932787;28;20218;-54
2024/02/29 11:51:09;;;;;;;7.07;3.43;;;11.80;99.90;;;;;;4955529;28;20230;-48
2024/02/29 11:53:36;;;;;;;4.93;3.53;;;11.80;99.90;;;;;;4964861;28;20614;-55
2024/02/29 11:56:04;;;;;;;4.90;3.53;;;11.90;99.90;;;;;;4956781;28;20289;-48
2024/02/29 11:58:32;;;;;;;4.07;3.67;;;12.00;99.90;;;;;;4966586;28;20221;-55
2024/02/29 12:01:01;;;;;;;3.70;3.27;;;11.90;99.90;;;;;;4952581;28;20194;-49
2024/02/29 12:03:29;;;;;;;4.10;3.70;;;12.00;99.90;;;;;;4924192;28;20198;-47
2024/02/29 12:05:56;;;;;;;5.57;3.50;;;12.00;99.90;;;;;;4954457;28;20217;-49
2024/02/29 12:08:26;;;;;;;5.00;3.43;;;11.90;99.90;;;;;;4960986;28;20297;-49
2024/02/29 12:10:58;;;;;;;4.13;3.17;;;12.00;99.90;;;;;;4962774;28;20245;-48
2024/02/29 12:13:26;;;;;;;4.27;3.13;;;12.00;99.90;;;;;;4957787;28;20213;-50
2024/02/29 12:15:54;;;;;;;3.77;3.03;;;12.10;99.90;;;;;;4950760;28;20228;-50
2024/02/29 12:18:23;;;;;;;4.37;3.13;;;12.10;99.90;;;;;;4935823;28;20245;-52
2024/02/29 12:20:51;;;;;;;4.10;3.03;;;12.10;99.90;;;;;;4961844;28;20187;-48
2024/02/29 12:23:20;;;;;;;4.40;3.13;;;12.20;99.90;;;;;;4944216;28;20205;-52
2024/02/29 12:25:47;;;;;;;3.93;3.00;;;12.30;99.90;;;;;;4967940;28;20667;-49
2024/02/29 12:28:14;;;;;;;3.93;2.90;;;12.40;99.90;;;;;;4954105;28;20238;-53
2024/02/29 12:30:41;;;;;;;4.20;3.00;;;12.40;99.90;;;;;;4965364;28;20226;-51
2024/02/29 12:33:08;;;;;;;5.27;3.50;;;12.50;99.90;;;;;;4938987;28;20206;-52
2024/02/29 12:35:36;;;;;;;3.00;2.70;;;12.50;99.90;;;;;;4952536;28;20216;-52
2024/02/29 12:38:04;;;;;;;3.30;2.70;;;12.50;99.90;;;;;;4954699;28;20272;-55
2024/02/29 12:40:33;;;;;;;3.43;2.83;;;12.60;99.90;;;;;;4963665;28;20194;-47
2024/02/29 12:43:00;;;;;;;3.70;2.97;;;12.70;99.90;;;;;;4954522;28;20214;-54